Decoded Metar for LFST (STRASSBOURG in FRANCE) (IATA:SXB) | Meteo·Mobile Aviation Weather
aviador You're here:

LFST Decoded Metar

STRASSBOURG in FRANCE
Report Time2019-07-21 17:00:00
UTC Time2019-07-21 17:22:54
Flight Rules vfr VFR
Wind010° at 08 kt
W.Decomp.*RWY 05: 6.1 kt HW 5.1 kt LCW
Visibility9999 m
Phenomena:N/A
Clouds:N/A
Expected CloudBase > 6,400 ft AGL from Temp-Dew spread
CeilingNone
Temp29°C (ISA +15)
Dew Point13°C (37% RH)
Heat Index28.4°C
AAT27.0°C
QNH1021 hPa
Density Alt2,162 ft
Elevation505 ft
Report Wrong Elevation
Raw Report
LFST 211700Z AUTO 01008KT 340V060 CAVOK 29/13 Q1021 NOSIG=

Extra information for LFST:More info

Metar Taf Metar & Taf Last 4 Metars F.Rules Stats Wind Profile Meteogram Temp Stats Airport Information Weather charts Add Link Nearby VenuesMetar ALERT Operation Metar Decoded Social comments